Time;durP1;ratioP1;P1;durP2;ratioP2;P2;SDS_P1;SDS_P2;PMS_P1;PMS_P2;Temp;Humidity;BMP_temperature;BMP_pressure;BME280_temperature;BME280_humidity;BME280_pressure;Samples;Min_cycle;Max_cycle;Signal;HPM_P1;HPM_P2
2024/03/18 00:02:03;;;;;;;12.32;4.35;;;;;;;;;;5093555;28;20024;-57
2024/03/18 00:04:29;;;;;;;11.55;4.60;;;;;;;;;;5093309;28;20551;-57
2024/03/18 00:06:55;;;;;;;11.48;5.03;;;;;;;;;;5092667;28;20024;-57
2024/03/18 00:09:21;;;;;;;9.18;4.20;;;;;;;;;;5093603;28;20024;-57
2024/03/18 00:11:47;;;;;;;9.40;4.35;;;;;;;;;;5093595;28;20023;-57
2024/03/18 00:14:13;;;;;;;13.50;4.68;;;;;;;;;;5092803;28;20491;-57
2024/03/18 00:16:39;;;;;;;11.50;4.10;;;;;;;;;;5093574;28;20036;-57
2024/03/18 00:19:05;;;;;;;11.45;4.68;;;;;;;;;;5085614;28;20549;-56
2024/03/18 00:21:31;;;;;;;11.25;3.97;;;;;;;;;;5093127;28;20142;-57
2024/03/18 00:23:57;;;;;;;11.95;4.30;;;;;;;;;;5091882;28;20104;-57
2024/03/18 00:26:23;;;;;;;9.30;3.85;;;;;;;;;;5093025;28;20036;-58
2024/03/18 00:28:49;;;;;;;9.18;4.00;;;;;;;;;;5092750;28;20078;-57
2024/03/18 00:31:15;;;;;;;11.00;4.43;;;;;;;;;;5110922;28;20479;-57
2024/03/18 00:33:41;;;;;;;12.65;4.53;;;;;;;;;;5113017;28;20031;-57
2024/03/18 00:36:07;;;;;;;11.02;4.60;;;;;;;;;;5113380;28;20035;-57
2024/03/18 00:38:33;;;;;;;11.73;4.25;;;;;;;;;;5107024;28;20073;-57
2024/03/18 00:43:44;;;;;;;10.15;4.32;;;;;;;;;;5092603;28;20069;-57
2024/03/18 00:46:09;;;;;;;10.65;4.20;;;;;;;;;;5092743;28;20095;-57
2024/03/18 00:48:35;;;;;;;11.50;4.22;;;;;;;;;;5092577;28;20024;-57
2024/03/18 00:51:01;;;;;;;8.18;3.55;;;;;;;;;;5092884;28;20024;-57
2024/03/18 00:53:27;;;;;;;9.45;4.07;;;;;;;;;;5073781;28;20035;-57
2024/03/18 00:55:53;;;;;;;12.40;4.28;;;;;;;;;;5092844;28;20058;-57
2024/03/18 00:58:19;;;;;;;12.13;4.38;;;;;;;;;;5089278;28;20024;-52
2024/03/18 01:00:45;;;;;;;13.73;4.68;;;;;;;;;;5073724;28;20024;-53
2024/03/18 01:03:12;;;;;;;12.82;4.68;;;;;;;;;;5089079;28;20035;-50
2024/03/18 01:05:39;;;;;;;10.65;4.00;;;;;;;;;;5082906;28;20024;-52
2024/03/18 01:08:06;;;;;;;10.45;4.00;;;;;;;;;;5092750;28;20133;-49
2024/03/18 01:10:32;;;;;;;12.02;4.03;;;;;;;;;;5092344;28;20054;-52
2024/03/18 01:12:58;;;;;;;10.68;4.10;;;;;;;;;;5092267;28;20051;-52
2024/03/18 01:15:24;;;;;;;10.48;3.92;;;;;;;;;;5085289;28;20055;-50
2024/03/18 01:17:51;;;;;;;11.48;4.57;;;;;;;;;;5081681;28;20028;-52
2024/03/18 01:20:19;;;;;;;8.32;3.65;;;;;;;;;;5090848;28;20024;-50
2024/03/18 01:22:48;;;;;;;10.73;4.38;;;;;;;;;;5092122;28;20660;-51
2024/03/18 01:25:14;;;;;;;10.82;4.88;;;;;;;;;;5086272;28;20075;-48
2024/03/18 01:27:40;;;;;;;13.27;4.25;;;;;;;;;;5090986;28;20067;-52
2024/03/18 01:30:13;;;;;;;9.25;4.10;;;;;;;;;;5112289;28;20117;-49
2024/03/18 01:32:40;;;;;;;11.80;4.40;;;;;;;;;;5084065;28;20020;-50
2024/03/18 01:35:15;;;;;;;8.70;4.32;;;;;;;;;;5087829;28;20358;-51
2024/03/18 01:37:41;;;;;;;13.25;5.05;;;;;;;;;;5103761;28;20107;-51
2024/03/18 01:40:10;;;;;;;9.18;4.07;;;;;;;;;;5097363;28;20483;-51
2024/03/18 01:42:36;;;;;;;11.32;4.20;;;;;;;;;;5091737;28;20027;-49
2024/03/18 01:45:03;;;;;;;10.95;4.47;;;;;;;;;;5084895;28;20032;-51
2024/03/18 01:47:30;;;;;;;10.30;4.55;;;;;;;;;;5091960;28;20028;-52
2024/03/18 01:49:56;;;;;;;10.57;4.45;;;;;;;;;;5093125;28;20025;-53
2024/03/18 01:52:22;;;;;;;11.52;4.18;;;;;;;;;;5089858;28;20020;-52
2024/03/18 01:54:48;;;;;;;11.23;4.43;;;;;;;;;;5073277;28;20024;-51
2024/03/18 01:57:15;;;;;;;12.00;4.40;;;;;;;;;;5078071;28;20040;-52
2024/03/18 01:59:41;;;;;;;11.80;4.80;;;;;;;;;;5082194;28;20029;-51
2024/03/18 02:02:07;;;;;;;15.40;4.63;;;;;;;;;;5073169;28;20029;-57
2024/03/18 02:04:34;;;;;;;13.57;4.82;;;;;;;;;;5093829;28;20030;-55
2024/03/18 02:07:00;;;;;;;13.63;4.43;;;;;;;;;;5091371;28;20047;-57
2024/03/18 02:09:27;;;;;;;10.82;4.25;;;;;;;;;;5088009;28;20024;-57
2024/03/18 02:11:53;;;;;;;11.50;4.55;;;;;;;;;;5093996;28;20475;-56
2024/03/18 02:14:20;;;;;;;10.80;4.20;;;;;;;;;;5093927;28;20039;-56
2024/03/18 02:16:46;;;;;;;15.40;4.15;;;;;;;;;;5085198;28;20024;-57
2024/03/18 02:19:12;;;;;;;12.82;4.30;;;;;;;;;;5095452;28;20039;-57
2024/03/18 02:21:38;;;;;;;12.23;4.45;;;;;;;;;;5095204;28;20052;-57
2024/03/18 02:24:06;;;;;;;11.65;4.90;;;;;;;;;;5095133;28;20032;-57
2024/03/18 02:26:33;;;;;;;10.25;4.15;;;;;;;;;;5091396;28;20440;-57
2024/03/18 02:28:59;;;;;;;10.63;4.60;;;;;;;;;;5079906;28;20504;-57
2024/03/18 02:31:25;;;;;;;11.20;4.15;;;;;;;;;;5096474;28;20032;-57
2024/03/18 02:33:51;;;;;;;10.18;3.75;;;;;;;;;;5074655;28;20131;-57
2024/03/18 02:36:18;;;;;;;8.02;3.63;;;;;;;;;;5084750;28;20484;-57
2024/03/18 02:38:44;;;;;;;11.25;4.35;;;;;;;;;;5095535;28;20063;-57
2024/03/18 02:41:10;;;;;;;11.27;4.10;;;;;;;;;;5092958;28;20039;-57
2024/03/18 02:43:36;;;;;;;10.55;3.63;;;;;;;;;;5094880;28;20045;-57
2024/03/18 02:46:04;;;;;;;9.40;3.50;;;;;;;;;;5095181;28;20028;-57
2024/03/18 02:48:30;;;;;;;9.93;4.05;;;;;;;;;;5094862;28;20024;-57
2024/03/18 02:50:56;;;;;;;9.50;3.65;;;;;;;;;;5095161;28;20027;-57
2024/03/18 02:53:22;;;;;;;7.80;3.40;;;;;;;;;;5075640;28;20107;-57
2024/03/18 02:55:48;;;;;;;10.25;4.00;;;;;;;;;;5085165;28;20035;-57
2024/03/18 02:58:14;;;;;;;7.57;3.25;;;;;;;;;;5090379;28;20016;-57
2024/03/18 03:00:40;;;;;;;8.75;3.28;;;;;;;;;;5094915;28;20020;-57
2024/03/18 03:03:06;;;;;;;9.30;3.88;;;;;;;;;;5092166;28;20036;-56
2024/03/18 03:05:32;;;;;;;9.35;3.45;;;;;;;;;;5093069;28;20028;-57
2024/03/18 03:07:58;;;;;;;8.57;3.25;;;;;;;;;;5085871;28;20040;-57
2024/03/18 03:10:24;;;;;;;8.18;3.28;;;;;;;;;;5094758;28;20020;-57
2024/03/18 03:12:50;;;;;;;6.68;3.13;;;;;;;;;;5094532;28;20043;-57
2024/03/18 03:15:16;;;;;;;9.52;3.25;;;;;;;;;;5093192;28;20446;-57
2024/03/18 03:17:43;;;;;;;6.13;2.83;;;;;;;;;;5094244;28;20059;-57
2024/03/18 03:20:09;;;;;;;5.18;2.70;;;;;;;;;;5094327;28;20368;-56
2024/03/18 03:22:36;;;;;;;6.60;2.65;;;;;;;;;;5081931;28;20028;-57
2024/03/18 03:25:03;;;;;;;9.23;3.15;;;;;;;;;;5074448;28;20102;-56
2024/03/18 03:27:29;;;;;;;9.18;3.47;;;;;;;;;;5086987;28;20027;-57
2024/03/18 03:29:55;;;;;;;8.40;3.08;;;;;;;;;;5091004;28;20372;-54
2024/03/18 03:32:22;;;;;;;6.18;3.13;;;;;;;;;;5092449;28;20043;-57
2024/03/18 03:34:48;;;;;;;9.93;3.25;;;;;;;;;;5083016;28;20029;-54
2024/03/18 03:37:14;;;;;;;7.82;3.15;;;;;;;;;;5087272;28;20033;-56
2024/03/18 03:39:40;;;;;;;4.60;2.63;;;;;;;;;;5093921;28;20028;-57
2024/03/18 03:42:06;;;;;;;6.65;3.17;;;;;;;;;;5089035;28;20387;-57
2024/03/18 03:44:32;;;;;;;8.48;2.50;;;;;;;;;;5086832;28;20377;-56
2024/03/18 03:46:58;;;;;;;6.72;2.38;;;;;;;;;;5090544;28;20035;-57
2024/03/18 03:49:25;;;;;;;6.68;3.63;;;;;;;;;;5088963;28;20028;-57
2024/03/18 03:51:51;;;;;;;6.13;2.72;;;;;;;;;;5093156;28;20024;-57
2024/03/18 03:54:17;;;;;;;6.85;2.88;;;;;;;;;;5082973;28;20476;-57
2024/03/18 03:56:43;;;;;;;4.57;2.08;;;;;;;;;;5080486;28;20032;-57
2024/03/18 03:59:09;;;;;;;6.30;3.00;;;;;;;;;;5082554;28;20043;-57
2024/03/18 04:01:35;;;;;;;6.10;2.80;;;;;;;;;;5096998;28;20035;-57
2024/03/18 04:04:01;;;;;;;8.05;2.90;;;;;;;;;;5092274;28;20036;-57
2024/03/18 04:06:27;;;;;;;6.90;2.83;;;;;;;;;;5090619;28;20088;-57
2024/03/18 04:08:53;;;;;;;7.60;3.03;;;;;;;;;;5092978;28;20024;-57
2024/03/18 04:11:19;;;;;;;6.40;2.92;;;;;;;;;;5081118;28;20119;-57
2024/03/18 04:13:45;;;;;;;8.10;2.70;;;;;;;;;;5072425;28;20104;-57
2024/03/18 04:16:11;;;;;;;8.15;2.67;;;;;;;;;;5091766;28;20036;-56
2024/03/18 04:18:38;;;;;;;8.45;3.00;;;;;;;;;;5087665;28;20052;-53
2024/03/18 04:21:04;;;;;;;5.03;2.63;;;;;;;;;;5086047;28;20040;-52
2024/03/18 04:23:32;;;;;;;9.82;3.47;;;;;;;;;;5084417;28;20029;-53
2024/03/18 04:25:59;;;;;;;5.22;2.58;;;;;;;;;;5085688;28;20028;-49
2024/03/18 04:28:25;;;;;;;5.22;2.50;;;;;;;;;;5089332;28;20391;-50
2024/03/18 04:30:51;;;;;;;4.10;2.53;;;;;;;;;;5074160;28;20396;-54
2024/03/18 04:33:17;;;;;;;5.82;2.25;;;;;;;;;;5072646;28;20033;-51
2024/03/18 04:35:43;;;;;;;6.72;2.75;;;;;;;;;;5083175;28;20028;-52
2024/03/18 04:38:09;;;;;;;4.90;2.80;;;;;;;;;;5092195;28;20034;-51
2024/03/18 04:40:35;;;;;;;8.93;3.17;;;;;;;;;;5077648;28;20036;-53
2024/03/18 04:43:01;;;;;;;6.43;2.83;;;;;;;;;;5088120;28;20085;-51
2024/03/18 04:45:27;;;;;;;4.40;2.30;;;;;;;;;;5076254;28;20446;-51
2024/03/18 04:47:53;;;;;;;4.70;2.45;;;;;;;;;;5081434;28;20037;-50
2024/03/18 04:50:21;;;;;;;6.63;2.42;;;;;;;;;;5082827;28;20369;-51
2024/03/18 04:52:47;;;;;;;5.75;2.75;;;;;;;;;;5078578;28;20016;-50
2024/03/18 04:55:13;;;;;;;5.72;2.83;;;;;;;;;;5090156;28;20555;-51
2024/03/18 04:57:40;;;;;;;7.50;3.13;;;;;;;;;;5089719;28;20028;-51
2024/03/18 05:00:11;;;;;;;7.57;2.50;;;;;;;;;;5072980;28;20024;-50
2024/03/18 05:02:38;;;;;;;7.30;2.58;;;;;;;;;;5085406;28;20032;-51
2024/03/18 05:05:04;;;;;;;6.25;2.70;;;;;;;;;;5091340;28;20080;-51
2024/03/18 05:07:30;;;;;;;7.93;3.10;;;;;;;;;;5085397;28;20085;-49
2024/03/18 05:09:56;;;;;;;5.57;2.90;;;;;;;;;;5086862;28;20028;-48
2024/03/18 05:12:22;;;;;;;7.07;2.70;;;;;;;;;;5090137;28;20073;-52
2024/03/18 05:14:48;;;;;;;5.00;2.58;;;;;;;;;;5083635;28;20032;-50
2024/03/18 05:17:14;;;;;;;7.47;3.13;;;;;;;;;;5080560;28;20034;-51
2024/03/18 05:19:41;;;;;;;8.70;3.40;;;;;;;;;;5090653;28;20032;-54
2024/03/18 05:22:07;;;;;;;6.78;3.35;;;;;;;;;;5091202;28;20074;-55
2024/03/18 05:24:33;;;;;;;4.78;2.47;;;;;;;;;;5085127;28;20046;-53
2024/03/18 05:26:59;;;;;;;7.10;2.90;;;;;;;;;;5087653;28;20483;-54
2024/03/18 05:29:25;;;;;;;7.00;3.17;;;;;;;;;;5091678;28;20032;-53
2024/03/18 05:31:52;;;;;;;5.78;2.63;;;;;;;;;;5087777;28;20422;-52
2024/03/18 05:34:18;;;;;;;7.38;3.35;;;;;;;;;;5090666;28;20028;-54
2024/03/18 05:36:44;;;;;;;7.00;3.00;;;;;;;;;;5090040;28;20024;-54
2024/03/18 05:39:11;;;;;;;6.55;3.47;;;;;;;;;;5089145;28;20032;-53
2024/03/18 05:41:37;;;;;;;5.60;2.97;;;;;;;;;;5089692;28;20020;-54
2024/03/18 05:44:03;;;;;;;7.65;3.70;;;;;;;;;;5088815;28;20491;-54
2024/03/18 05:46:29;;;;;;;11.48;5.97;;;;;;;;;;5085805;28;20073;-54
2024/03/18 05:48:55;;;;;;;38.00;13.40;;;;;;;;;;5086386;28;20032;-54
2024/03/18 05:51:21;;;;;;;130.95;42.72;;;;;;;;;;5086632;28;20035;-53
2024/03/18 05:53:47;;;;;;;14.32;5.97;;;;;;;;;;5080831;28;20031;-53
2024/03/18 05:56:13;;;;;;;29.92;11.20;;;;;;;;;;5081935;28;20024;-54
2024/03/18 05:58:39;;;;;;;5.63;3.25;;;;;;;;;;5089737;28;20071;-53
2024/03/18 06:01:10;;;;;;;7.10;2.42;;;;;;;;;;5090809;28;20035;-54
2024/03/18 06:03:36;;;;;;;9.02;3.50;;;;;;;;;;5081066;28;20028;-52
2024/03/18 06:06:02;;;;;;;5.88;3.47;;;;;;;;;;5084934;28;20020;-54
2024/03/18 06:08:28;;;;;;;12.82;7.20;;;;;;;;;;5084651;28;20488;-52
2024/03/18 06:10:54;;;;;;;6.35;3.33;;;;;;;;;;5077910;28;20047;-52
2024/03/18 06:13:20;;;;;;;18.58;8.73;;;;;;;;;;5086485;28;20020;-54
2024/03/18 06:15:46;;;;;;;24.67;12.50;;;;;;;;;;5089537;28;20028;-53
2024/03/18 06:18:12;;;;;;;30.67;12.77;;;;;;;;;;5082795;28;20060;-53
2024/03/18 06:20:43;;;;;;;29.52;13.18;;;;;;;;;;5087813;28;20083;-54
2024/03/18 06:23:09;;;;;;;6.45;3.47;;;;;;;;;;5080912;28;20791;-54
2024/03/18 06:28:20;;;;;;;46.30;17.70;;;;;;;;;;5079908;28;20097;-54
2024/03/18 06:30:50;;;;;;;96.55;29.40;;;;;;;;;;5090231;28;20032;-54
2024/03/18 06:33:16;;;;;;;95.72;31.40;;;;;;;;;;5087609;28;20020;-53
2024/03/18 06:35:43;;;;;;;60.72;20.50;;;;;;;;;;5090336;28;20028;-54
2024/03/18 06:38:09;;;;;;;45.72;13.82;;;;;;;;;;5090401;28;20456;-58
2024/03/18 06:40:35;;;;;;;17.85;6.88;;;;;;;;;;5079029;28;20101;-55
2024/03/18 06:43:01;;;;;;;12.82;5.18;;;;;;;;;;5090674;28;20032;-56
2024/03/18 06:45:27;;;;;;;38.50;13.48;;;;;;;;;;5090484;28;20352;-56
2024/03/18 06:47:53;;;;;;;143.63;47.35;;;;;;;;;;5090482;28;20344;-55
2024/03/18 06:50:20;;;;;;;10.70;4.38;;;;;;;;;;5081573;28;20113;-56
2024/03/18 06:52:46;;;;;;;6.25;2.67;;;;;;;;;;5093988;28;20034;-56
2024/03/18 06:55:12;;;;;;;37.55;13.70;;;;;;;;;;5093425;28;20128;-56
2024/03/18 06:57:39;;;;;;;148.98;47.95;;;;;;;;;;5090640;28;20107;-56
2024/03/18 07:00:06;;;;;;;20.58;8.35;;;;;;;;;;5084744;28;20029;-56
2024/03/18 07:02:32;;;;;;;27.50;10.35;;;;;;;;;;5103945;28;20449;-56
2024/03/18 07:04:58;;;;;;;27.55;9.93;;;;;;;;;;5093982;28;20032;-56
2024/03/18 07:07:24;;;;;;;71.80;23.90;;;;;;;;;;5093905;28;20059;-55
2024/03/18 07:09:50;;;;;;;37.42;11.77;;;;;;;;;;5083516;28;20444;-56
2024/03/18 07:12:16;;;;;;;30.85;11.25;;;;;;;;;;5092626;28;20395;-56
2024/03/18 07:14:42;;;;;;;23.05;8.40;;;;;;;;;;5093009;28;20024;-56
2024/03/18 07:17:08;;;;;;;6.15;2.80;;;;;;;;;;5092460;28;20036;-56
2024/03/18 07:19:34;;;;;;;48.38;14.40;;;;;;;;;;5092015;28;20131;-57
2024/03/18 07:22:01;;;;;;;7.25;3.00;;;;;;;;;;5090314;28;20089;-56
2024/03/18 07:24:28;;;;;;;11.90;4.28;;;;;;;;;;5093378;28;20115;-55
2024/03/18 07:26:54;;;;;;;17.80;5.25;;;;;;;;;;5081208;28;20462;-56
2024/03/18 07:29:20;;;;;;;26.90;8.13;;;;;;;;;;5093650;28;20443;-56
2024/03/18 07:31:46;;;;;;;9.63;3.63;;;;;;;;;;5092572;28;20052;-56
2024/03/18 07:34:13;;;;;;;5.25;2.40;;;;;;;;;;5090634;28;20017;-56
2024/03/18 07:36:42;;;;;;;21.08;7.88;;;;;;;;;;5084632;28;20385;-56
2024/03/18 07:39:08;;;;;;;16.40;5.55;;;;;;;;;;5092537;28;20074;-56
2024/03/18 07:41:35;;;;;;;34.13;10.38;;;;;;;;;;5092191;28;20027;-55
2024/03/18 07:44:01;;;;;;;20.88;7.30;;;;;;;;;;5092774;28;20039;-56
2024/03/18 07:46:27;;;;;;;16.17;5.38;;;;;;;;;;5092157;28;20028;-56
2024/03/18 07:48:53;;;;;;;4.53;1.60;;;;;;;;;;5093404;28;20028;-54
2024/03/18 07:51:19;;;;;;;3.83;1.92;;;;;;;;;;5090184;28;20024;-54
2024/03/18 07:53:45;;;;;;;6.43;1.77;;;;;;;;;;5092856;28;20039;-54
2024/03/18 07:56:12;;;;;;;5.32;1.50;;;;;;;;;;5092181;28;20020;-54
2024/03/18 07:58:38;;;;;;;5.63;1.80;;;;;;;;;;5092353;28;20487;-53
2024/03/18 08:01:04;;;;;;;1.83;1.20;;;;;;;;;;5096305;28;20057;-53
2024/03/18 08:03:30;;;;;;;1.35;1.02;;;;;;;;;;5091201;28;20107;-52
2024/03/18 08:05:56;;;;;;;4.32;1.67;;;;;;;;;;5083020;28;20025;-54
2024/03/18 08:08:22;;;;;;;3.22;1.40;;;;;;;;;;5079725;28;20020;-54
2024/03/18 08:10:48;;;;;;;2.33;1.05;;;;;;;;;;5092830;28;20104;-53
2024/03/18 08:13:14;;;;;;;1.63;0.93;;;;;;;;;;5091426;28;20047;-53
2024/03/18 08:15:40;;;;;;;1.80;1.00;;;;;;;;;;5092127;28;20032;-55
2024/03/18 08:18:06;;;;;;;4.55;0.90;;;;;;;;;;5091919;28;20051;-54
2024/03/18 08:20:32;;;;;;;4.82;2.13;;;;;;;;;;5090262;28;20064;-54
2024/03/18 08:22:59;;;;;;;1.90;0.90;;;;;;;;;;5091132;28;20411;-54
2024/03/18 08:25:26;;;;;;;2.40;1.02;;;;;;;;;;5083635;28;20667;-53
2024/03/18 08:27:52;;;;;;;3.03;0.70;;;;;;;;;;5090839;28;20036;-55
2024/03/18 08:30:18;;;;;;;3.78;1.77;;;;;;;;;;5085714;28;20028;-55
2024/03/18 08:32:44;;;;;;;1.58;0.80;;;;;;;;;;5088159;28;20028;-55
2024/03/18 08:35:10;;;;;;;1.08;0.75;;;;;;;;;;5092576;28;20024;-54
2024/03/18 08:37:36;;;;;;;2.25;0.90;;;;;;;;;;5079736;28;20391;-55
2024/03/18 08:40:02;;;;;;;2.75;0.88;;;;;;;;;;5078940;28;20114;-53
2024/03/18 08:42:28;;;;;;;2.28;0.60;;;;;;;;;;5087365;28;20028;-55
2024/03/18 08:44:54;;;;;;;0.98;0.80;;;;;;;;;;5092581;28;20062;-54
2024/03/18 08:47:23;;;;;;;2.97;1.00;;;;;;;;;;5091384;28;20073;-54
2024/03/18 08:49:49;;;;;;;0.80;0.52;;;;;;;;;;5092149;28;20030;-54
2024/03/18 08:52:15;;;;;;;1.85;0.68;;;;;;;;;;5087786;28;20107;-54
2024/03/18 08:54:41;;;;;;;3.85;0.80;;;;;;;;;;5091328;28;20024;-53
2024/03/18 08:57:07;;;;;;;1.13;0.73;;;;;;;;;;5080739;28;20036;-54
2024/03/18 08:59:34;;;;;;;0.77;0.50;;;;;;;;;;5092186;28;20084;-58
2024/03/18 09:02:00;;;;;;;1.25;0.55;;;;;;;;;;5099153;28;20040;-58
2024/03/18 09:04:27;;;;;;;0.95;0.45;;;;;;;;;;5085907;28;20062;-57
2024/03/18 09:06:53;;;;;;;0.73;0.45;;;;;;;;;;5091734;28;20035;-57
2024/03/18 09:09:22;;;;;;;3.80;0.70;;;;;;;;;;5091844;28;20085;-57
2024/03/18 09:11:49;;;;;;;0.88;0.45;;;;;;;;;;5090576;28;20475;-55
2024/03/18 09:14:15;;;;;;;0.95;0.60;;;;;;;;;;5090731;28;20032;-55
2024/03/18 09:16:41;;;;;;;1.10;0.40;;;;;;;;;;5091589;28;20057;-56
2024/03/18 09:19:07;;;;;;;0.85;0.63;;;;;;;;;;5091539;28;20020;-57
2024/03/18 09:21:33;;;;;;;0.50;0.50;;;;;;;;;;5091443;28;20138;-57
2024/03/18 09:23:59;;;;;;;1.63;0.60;;;;;;;;;;5088677;28;20035;-56
2024/03/18 09:26:25;;;;;;;1.38;0.77;;;;;;;;;;5090391;28;20572;-56
2024/03/18 09:28:51;;;;;;;1.73;0.60;;;;;;;;;;5091840;28;20081;-59
2024/03/18 09:31:17;;;;;;;0.90;0.45;;;;;;;;;;5090850;28;20020;-56
2024/03/18 09:33:43;;;;;;;3.95;0.60;;;;;;;;;;5090353;28;20025;-60
2024/03/18 09:36:09;;;;;;;1.65;0.60;;;;;;;;;;5090730;28;20031;-56
2024/03/18 09:38:35;;;;;;;1.35;0.50;;;;;;;;;;5101634;28;20028;-57
2024/03/18 09:41:05;;;;;;;0.55;0.40;;;;;;;;;;5088088;28;20020;-56
2024/03/18 09:43:35;;;;;;;0.98;0.40;;;;;;;;;;5089549;28;20058;-56
2024/03/18 09:46:01;;;;;;;3.28;0.68;;;;;;;;;;5091416;28;20020;-56
2024/03/18 09:48:29;;;;;;;1.75;0.73;;;;;;;;;;5090773;28;20024;-56
2024/03/18 09:50:57;;;;;;;0.93;0.57;;;;;;;;;;5091245;28;20085;-56
2024/03/18 09:53:23;;;;;;;4.72;0.50;;;;;;;;;;5082523;28;20028;-56
2024/03/18 09:55:49;;;;;;;3.88;0.57;;;;;;;;;;5090013;28;20036;-57
2024/03/18 09:58:15;;;;;;;1.33;0.50;;;;;;;;;;5090519;28;20040;-56
2024/03/18 10:00:41;;;;;;;3.17;0.60;;;;;;;;;;5095386;28;20019;-56
2024/03/18 10:03:15;;;;;;;0.25;0.22;;;;;;;;;;5093475;28;20031;-56
2024/03/18 10:05:41;;;;;;;1.42;0.50;;;;;;;;;;5090241;28;20437;-56
2024/03/18 10:08:08;;;;;;;0.75;0.50;;;;;;;;;;5076577;28;20040;-60
2024/03/18 10:10:34;;;;;;;1.17;0.80;;;;;;;;;;5089232;28;20066;-60
2024/03/18 10:13:00;;;;;;;4.88;0.60;;;;;;;;;;5089152;28;20042;-60
2024/03/18 10:15:27;;;;;;;0.88;0.50;;;;;;;;;;5090404;28;20468;-60
2024/03/18 10:17:55;;;;;;;1.00;0.50;;;;;;;;;;5090177;28;20120;-60
2024/03/18 10:20:22;;;;;;;1.90;0.40;;;;;;;;;;5090894;28;20073;-59
2024/03/18 10:22:48;;;;;;;0.93;0.30;;;;;;;;;;5083322;28;20040;-60
2024/03/18 10:25:21;;;;;;;1.00;0.65;;;;;;;;;;5083422;28;20047;-60
2024/03/18 10:27:47;;;;;;;1.45;0.50;;;;;;;;;;5096627;28;20036;-60
2024/03/18 10:30:13;;;;;;;1.08;0.40;;;;;;;;;;5094948;28;20111;-60
2024/03/18 10:32:43;;;;;;;1.08;0.52;;;;;;;;;;5093446;28;20085;-59
2024/03/18 10:35:18;;;;;;;0.98;0.40;;;;;;;;;;5092450;28;20046;-61
2024/03/18 10:37:44;;;;;;;1.77;0.45;;;;;;;;;;5093991;28;20028;-60
2024/03/18 10:40:17;;;;;;;1.48;0.45;;;;;;;;;;5089888;28;20021;-60
2024/03/18 10:42:45;;;;;;;0.88;0.43;;;;;;;;;;5092314;28;20032;-60
2024/03/18 10:45:16;;;;;;;1.23;0.40;;;;;;;;;;5094806;28;20448;-60
2024/03/18 10:47:43;;;;;;;0.90;0.30;;;;;;;;;;5093423;28;20032;-60
2024/03/18 10:50:13;;;;;;;1.67;0.50;;;;;;;;;;5094478;28;20103;-58
2024/03/18 10:52:40;;;;;;;2.05;0.40;;;;;;;;;;5089802;28;20091;-60
2024/03/18 10:55:12;;;;;;;1.25;0.40;;;;;;;;;;5087379;28;20033;-60
2024/03/18 10:57:38;;;;;;;0.60;0.32;;;;;;;;;;5082585;28;20029;-60
2024/03/18 11:00:11;;;;;;;1.02;0.30;;;;;;;;;;5104263;28;20024;-60
2024/03/18 11:02:37;;;;;;;0.50;0.30;;;;;;;;;;5087314;28;20499;-60
2024/03/18 11:05:03;;;;;;;1.27;0.50;;;;;;;;;;5094239;28;20020;-60
2024/03/18 11:07:31;;;;;;;0.80;0.40;;;;;;;;;;5094020;28;20414;-60
2024/03/18 11:10:11;;;;;;;2.15;0.50;;;;;;;;;;5093463;28;20069;-60
2024/03/18 11:12:38;;;;;;;3.00;0.50;;;;;;;;;;5093521;28;20158;-60
2024/03/18 11:15:08;;;;;;;1.83;0.73;;;;;;;;;;5094157;28;20024;-60
2024/03/18 11:17:41;;;;;;;1.50;0.63;;;;;;;;;;5093979;28;20031;-60
2024/03/18 11:20:14;;;;;;;0.98;0.40;;;;;;;;;;5080483;28;20477;-58
2024/03/18 11:22:47;;;;;;;0.68;0.20;;;;;;;;;;5092692;28;20100;-60
2024/03/18 11:25:18;;;;;;;0.52;0.30;;;;;;;;;;5093394;28;20032;-60
2024/03/18 11:27:48;;;;;;;0.75;0.30;;;;;;;;;;5083750;28;20160;-60
2024/03/18 11:30:24;;;;;;;2.17;0.30;;;;;;;;;;5093834;28;20513;-60
2024/03/18 11:32:51;;;;;;;0.77;0.28;;;;;;;;;;5092514;28;20051;-58
2024/03/18 11:35:17;;;;;;;1.17;0.70;;;;;;;;;;5092889;28;20012;-60
2024/03/18 11:37:45;;;;;;;1.65;0.35;;;;;;;;;;5091474;28;20036;-60
2024/03/18 11:40:14;;;;;;;1.25;0.40;;;;;;;;;;5092612;28;20136;-58
2024/03/18 11:42:40;;;;;;;3.15;0.70;;;;;;;;;;5090534;28;20050;-60
2024/03/18 11:45:06;;;;;;;0.93;0.38;;;;;;;;;;5093611;28;20032;-60
2024/03/18 11:47:32;;;;;;;0.82;0.40;;;;;;;;;;5092235;28;20131;-60
2024/03/18 11:50:04;;;;;;;1.58;0.50;;;;;;;;;;5091427;28;20050;-60
2024/03/18 11:52:30;;;;;;;2.60;0.82;;;;;;;;;;5091343;28;20198;-60
2024/03/18 11:54:57;;;;;;;1.17;0.40;;;;;;;;;;5092888;28;20103;-60
2024/03/18 11:57:23;;;;;;;0.70;0.40;;;;;;;;;;5093042;28;20020;-60
2024/03/18 11:59:52;;;;;;;1.88;0.70;;;;;;;;;;5093181;28;20031;-60
2024/03/18 12:02:18;;;;;;;1.98;0.63;;;;;;;;;;5096138;28;20488;-61
2024/03/18 12:04:44;;;;;;;3.03;0.75;;;;;;;;;;5092627;28;20020;-61
2024/03/18 12:07:11;;;;;;;1.17;0.30;;;;;;;;;;5092979;28;20028;-59
2024/03/18 12:09:37;;;;;;;1.13;0.35;;;;;;;;;;5092818;28;20047;-60
2024/03/18 12:12:03;;;;;;;1.20;0.43;;;;;;;;;;5092725;28;20488;-60
2024/03/18 12:14:31;;;;;;;1.42;0.30;;;;;;;;;;5092427;28;20073;-60
2024/03/18 12:16:57;;;;;;;1.25;0.50;;;;;;;;;;5092928;28;20020;-60
2024/03/18 12:19:24;;;;;;;3.55;0.50;;;;;;;;;;5089130;28;20105;-60
2024/03/18 12:21:50;;;;;;;2.05;0.88;;;;;;;;;;5092710;28;20055;-60
2024/03/18 12:29:45;;;;;;;1.52;0.63;;;;;;;;;;5089689;28;20514;-60
2024/03/18 12:32:14;;;;;;;4.25;0.70;;;;;;;;;;5090675;28;20020;-60
2024/03/18 12:34:43;;;;;;;1.65;0.47;;;;;;;;;;5092096;28;20069;-59
2024/03/18 12:37:14;;;;;;;1.20;0.57;;;;;;;;;;5091888;28;20360;-60
2024/03/18 12:39:40;;;;;;;2.28;0.70;;;;;;;;;;5091036;28;20106;-60
2024/03/18 12:42:11;;;;;;;1.00;0.52;;;;;;;;;;5089074;28;20040;-60
2024/03/18 12:44:37;;;;;;;1.15;0.50;;;;;;;;;;5084299;28;20028;-60
2024/03/18 12:47:03;;;;;;;5.07;0.63;;;;;;;;;;5086300;28;20087;-58
2024/03/18 12:49:29;;;;;;;1.08;0.60;;;;;;;;;;5088261;28;20127;-56
2024/03/18 12:51:55;;;;;;;1.95;0.65;;;;;;;;;;5090628;28;20484;-56
2024/03/18 12:54:21;;;;;;;1.10;0.57;;;;;;;;;;5089914;28;20031;-56
2024/03/18 12:56:47;;;;;;;1.48;0.50;;;;;;;;;;5079235;28;20029;-56
2024/03/18 12:59:13;;;;;;;2.88;0.50;;;;;;;;;;5086680;28;20111;-57
2024/03/18 13:01:39;;;;;;;2.22;0.47;;;;;;;;;;5089164;28;20060;-55
2024/03/18 13:04:05;;;;;;;1.42;0.38;;;;;;;;;;5087296;28;20063;-56
2024/03/18 13:06:31;;;;;;;2.28;0.60;;;;;;;;;;5085193;28;20035;-56
2024/03/18 13:08:57;;;;;;;1.15;0.50;;;;;;;;;;5089836;28;20055;-56
2024/03/18 13:11:23;;;;;;;2.10;0.63;;;;;;;;;;5091622;28;20020;-56
2024/03/18 13:13:50;;;;;;;3.67;0.60;;;;;;;;;;5089240;28;20111;-56
2024/03/18 13:16:16;;;;;;;2.08;0.73;;;;;;;;;;5089950;28;20400;-56
2024/03/18 13:18:42;;;;;;;2.35;0.63;;;;;;;;;;5091700;28;20035;-57
2024/03/18 13:21:11;;;;;;;1.05;0.40;;;;;;;;;;5082469;28;20048;-57
2024/03/18 13:23:37;;;;;;;1.42;0.57;;;;;;;;;;5081305;28;20043;-57
2024/03/18 13:26:03;;;;;;;2.40;0.40;;;;;;;;;;5084337;28;20045;-56
2024/03/18 13:28:30;;;;;;;0.73;0.40;;;;;;;;;;5076856;28;20029;-56
2024/03/18 13:30:56;;;;;;;3.10;0.50;;;;;;;;;;5080863;28;20342;-57
2024/03/18 13:33:22;;;;;;;0.82;0.40;;;;;;;;;;5090916;28;20024;-57
2024/03/18 13:35:49;;;;;;;2.40;0.30;;;;;;;;;;5086217;28;20099;-57
2024/03/18 13:38:15;;;;;;;0.30;0.20;;;;;;;;;;5090329;28;20028;-56
2024/03/18 13:40:41;;;;;;;0.55;0.35;;;;;;;;;;5091439;28;20373;-57
2024/03/18 13:43:07;;;;;;;2.15;0.60;;;;;;;;;;5087766;28;20034;-57
2024/03/18 13:45:33;;;;;;;1.25;0.50;;;;;;;;;;5083873;28;20488;-57
2024/03/18 13:48:03;;;;;;;2.28;0.50;;;;;;;;;;5083675;28;20089;-60
2024/03/18 13:50:30;;;;;;;1.98;0.40;;;;;;;;;;5087127;28;20024;-60
2024/03/18 13:52:56;;;;;;;0.73;0.47;;;;;;;;;;5091058;28;20491;-59
2024/03/18 13:55:23;;;;;;;2.58;0.50;;;;;;;;;;5086852;28;20070;-61
2024/03/18 13:57:49;;;;;;;6.03;0.50;;;;;;;;;;5084853;28;20024;-60
2024/03/18 14:00:22;;;;;;;2.15;0.60;;;;;;;;;;5091747;28;20060;-60
2024/03/18 14:02:48;;;;;;;2.28;0.38;;;;;;;;;;5090865;28;20055;-60
2024/03/18 14:05:15;;;;;;;1.05;0.40;;;;;;;;;;5094098;28;20073;-60
2024/03/18 14:07:41;;;;;;;1.38;0.43;;;;;;;;;;5092031;28;20027;-59
2024/03/18 14:10:08;;;;;;;3.75;0.60;;;;;;;;;;5094493;28;20031;-60
2024/03/18 14:12:33;;;;;;;6.20;0.85;;;;;;;;;;5094594;28;20149;-60
2024/03/18 14:15:00;;;;;;;3.72;0.60;;;;;;;;;;5088292;28;20020;-59
2024/03/18 14:17:26;;;;;;;0.73;0.38;;;;;;;;;;5090396;28;20027;-60
2024/03/18 14:19:52;;;;;;;2.03;0.55;;;;;;;;;;5094917;28;20495;-60
2024/03/18 14:22:18;;;;;;;2.28;0.77;;;;;;;;;;5093473;28;20056;-60
2024/03/18 14:24:47;;;;;;;1.98;0.43;;;;;;;;;;5093344;28;20028;-59
2024/03/18 14:27:13;;;;;;;2.85;0.47;;;;;;;;;;5090583;28;20024;-60
2024/03/18 14:29:39;;;;;;;1.65;0.47;;;;;;;;;;5093887;28;20497;-60
2024/03/18 14:32:06;;;;;;;1.25;0.50;;;;;;;;;;5091808;28;20094;-60
2024/03/18 14:34:32;;;;;;;1.17;0.50;;;;;;;;;;5094682;28;20494;-60
2024/03/18 14:37:04;;;;;;;3.08;0.50;;;;;;;;;;5094674;28;20085;-60
2024/03/18 14:39:31;;;;;;;2.60;0.80;;;;;;;;;;5094457;28;20124;-60
2024/03/18 14:41:57;;;;;;;59.15;30.67;;;;;;;;;;5094503;28;20046;-59
2024/03/18 14:44:23;;;;;;;21.08;7.38;;;;;;;;;;5093724;28;20028;-60
2024/03/18 14:46:49;;;;;;;36.58;18.38;;;;;;;;;;5093618;28;20024;-60